Time;durP1;ratioP1;P1;durP2;ratioP2;P2;SDS_P1;SDS_P2;PMS_P1;PMS_P2;Temp;Humidity;BMP_temperature;BMP_pressure;BME280_temperature;BME280_humidity;BME280_pressure;Samples;Min_cycle;Max_cycle;Signal;HPM_P1;HPM_P2
2021/11/21 00:01:57;;;;;;;45.15;31.93;;;25.70;97.10;;;;;;1836707;76;21657;-81
2021/11/21 00:04:29;;;;;;;48.90;32.60;;;25.80;97.10;;;;;;1834598;77;21187;-82
2021/11/21 00:07:00;;;;;;;46.42;32.15;;;25.80;97.10;;;;;;1829345;76;21130;-81
2021/11/21 00:09:31;;;;;;;50.50;32.55;;;25.80;97.10;;;;;;1820574;77;21122;-81
2021/11/21 00:12:02;;;;;;;47.30;32.95;;;25.90;97.10;;;;;;1822616;76;21655;-80
2021/11/21 00:14:33;;;;;;;53.83;33.45;;;25.90;97.10;;;;;;1825222;76;21152;-81
2021/11/21 00:17:07;;;;;;;50.65;32.53;;;26.00;97.00;;;;;;1850196;76;21221;-80
2021/11/21 00:19:40;;;;;;;50.70;32.53;;;26.00;96.90;;;;;;1847032;76;21146;-82
2021/11/21 00:22:13;;;;;;;49.70;34.45;;;26.10;96.80;;;;;;1855500;76;21143;-81
2021/11/21 00:24:45;;;;;;;47.90;36.77;;;26.20;96.70;;;;;;1845935;76;21651;-81
2021/11/21 00:27:16;;;;;;;64.17;42.67;;;26.20;96.40;;;;;;1851350;76;21123;-80
2021/11/21 00:29:46;;;;;;;54.38;41.68;;;26.30;96.20;;;;;;1849250;76;21167;-80
2021/11/21 00:32:17;;;;;;;63.50;43.45;;;26.40;96.10;;;;;;1855908;76;21089;-81
2021/11/21 00:34:49;;;;;;;65.72;45.73;;;26.40;95.80;;;;;;1847252;76;21151;-81
2021/11/21 00:37:20;;;;;;;56.90;39.45;;;26.50;95.00;;;;;;1848941;76;21626;-81
2021/11/21 00:39:50;;;;;;;50.43;35.23;;;26.60;94.60;;;;;;1880022;75;21193;-81
2021/11/21 00:42:21;;;;;;;52.53;34.63;;;26.60;94.60;;;;;;1819457;76;21385;-81
2021/11/21 00:44:52;;;;;;;48.95;34.43;;;26.70;94.60;;;;;;1822617;78;21179;-81
2021/11/21 00:47:23;;;;;;;47.20;33.65;;;26.80;94.50;;;;;;1832661;76;21142;-80
2021/11/21 00:49:54;;;;;;;47.70;33.25;;;26.80;94.40;;;;;;1832423;77;21579;-81
2021/11/21 00:52:25;;;;;;;47.38;32.50;;;26.90;94.20;;;;;;1830446;77;21242;-81
2021/11/21 00:55:07;;;;;;;47.20;33.15;;;26.90;94.10;;;;;;1789156;78;21163;-81
2021/11/21 00:57:28;;;;;;;46.05;33.00;;;26.90;94.00;;;;;;1792851;76;21198;-80
2021/11/21 00:59:58;;;;;;;45.52;31.07;;;27.00;94.00;;;;;;1789488;79;21252;-82
2021/11/21 01:02:29;;;;;;;41.08;26.85;;;27.00;93.70;;;;;;1869755;75;21149;-81
2021/11/21 01:05:01;;;;;;;36.08;26.62;;;27.00;93.50;;;;;;1816225;78;21134;-81
2021/11/21 01:07:33;;;;;;;33.63;24.67;;;27.10;93.50;;;;;;1866717;76;21146;-81
2021/11/21 01:10:06;;;;;;;34.73;23.10;;;27.20;93.30;;;;;;1802021;78;21156;-81
2021/11/21 01:12:40;;;;;;;33.67;23.52;;;27.20;93.10;;;;;;1808922;78;21190;-81
2021/11/21 01:15:13;;;;;;;33.98;23.15;;;27.30;93.00;;;;;;1798039;78;21198;-81
2021/11/21 01:17:43;;;;;;;32.93;21.33;;;27.30;92.90;;;;;;1797470;79;21171;-81
2021/11/21 01:20:15;;;;;;;35.03;22.13;;;27.40;92.60;;;;;;1803488;78;21750;-82
2021/11/21 01:22:47;;;;;;;29.85;21.07;;;27.40;92.50;;;;;;1791687;78;21274;-81
2021/11/21 01:25:18;;;;;;;30.23;21.37;;;27.50;92.40;;;;;;1790755;79;21155;-81
2021/11/21 01:27:50;;;;;;;29.67;21.42;;;27.60;92.20;;;;;;1793984;79;21729;-81
2021/11/21 01:30:46;;;;;;;30.75;20.10;;;27.60;92.10;;;;;;1798156;78;21108;-81
2021/11/21 01:33:13;;;;;;;32.00;20.43;;;27.70;92.00;;;;;;1784761;78;21115;-81
2021/11/21 01:35:44;;;;;;;25.12;16.85;;;27.70;91.80;;;;;;1796349;78;21139;-80
2021/11/21 01:38:15;;;;;;;28.07;18.00;;;27.80;91.40;;;;;;1797887;77;21125;-80
2021/11/21 01:40:47;;;;;;;23.52;16.50;;;27.80;91.20;;;;;;1800392;79;21119;-81
2021/11/21 01:43:18;;;;;;;18.67;14.00;;;27.90;91.20;;;;;;1801752;79;21123;-81
2021/11/21 01:45:48;;;;;;;16.52;12.53;;;27.90;90.90;;;;;;1807716;77;21218;-81
2021/11/21 01:48:19;;;;;;;18.77;11.85;;;28.00;90.60;;;;;;1802969;78;21144;-80
2021/11/21 01:50:51;;;;;;;17.27;11.38;;;28.10;90.50;;;;;;1848502;76;21160;-80
2021/11/21 01:53:22;;;;;;;13.45;10.28;;;28.10;90.20;;;;;;1797298;77;21178;-80
2021/11/21 01:55:53;;;;;;;16.93;10.90;;;28.10;89.30;;;;;;1833249;77;21131;-81
2021/11/21 01:58:24;;;;;;;17.27;10.98;;;28.30;89.80;;;;;;1859365;76;21653;-81
2021/11/21 02:00:55;;;;;;;15.28;10.35;;;28.30;89.70;;;;;;1830553;77;21143;-82
2021/11/21 02:03:26;;;;;;;16.40;10.72;;;28.30;89.60;;;;;;1831865;77;21213;-81
2021/11/21 02:05:59;;;;;;;16.67;9.83;;;28.40;88.90;;;;;;1792654;78;21241;-81
2021/11/21 02:08:30;;;;;;;12.80;9.48;;;28.40;88.40;;;;;;1842141;76;21119;-79
2021/11/21 02:11:01;;;;;;;14.03;10.30;;;28.50;88.50;;;;;;1832451;76;21792;-80
2021/11/21 02:13:32;;;;;;;14.80;10.68;;;28.50;87.70;;;;;;1850152;76;21185;-81
2021/11/21 02:16:04;;;;;;;15.08;10.03;;;28.50;88.20;;;;;;1852374;76;21177;-81
2021/11/21 02:18:35;;;;;;;16.37;10.20;;;28.60;87.60;;;;;;1867227;76;21607;-81
2021/11/21 02:21:06;;;;;;;15.35;10.45;;;28.60;88.00;;;;;;1849057;76;21189;-81
2021/11/21 02:23:36;;;;;;;15.50;10.65;;;28.70;87.70;;;;;;1852604;76;21134;-81
2021/11/21 02:26:08;;;;;;;20.27;11.43;;;28.80;87.30;;;;;;1861057;76;21532;-81
2021/11/21 02:28:39;;;;;;;16.67;10.45;;;28.80;87.10;;;;;;1851074;76;21147;-81
2021/11/21 02:31:13;;;;;;;16.20;10.48;;;28.80;87.30;;;;;;1832913;76;21684;-80
2021/11/21 02:33:45;;;;;;;15.23;10.82;;;28.90;86.90;;;;;;1826265;76;21162;-81
2021/11/21 02:36:16;;;;;;;14.00;10.78;;;28.90;86.70;;;;;;1853016;76;21224;-82
2021/11/21 02:38:48;;;;;;;14.63;10.53;;;28.90;86.50;;;;;;1828945;76;21189;-81
2021/11/21 02:41:19;;;;;;;16.23;11.12;;;29.00;86.50;;;;;;1845386;76;21155;-81
2021/11/21 02:43:50;;;;;;;16.52;9.95;;;29.00;86.90;;;;;;1796986;77;21212;-81
2021/11/21 02:46:22;;;;;;;14.43;9.63;;;29.10;86.60;;;;;;1808552;78;21233;-80
2021/11/21 02:48:53;;;;;;;12.95;9.13;;;29.10;85.80;;;;;;1818768;78;21188;-81
2021/11/21 02:51:23;;;;;;;13.10;7.90;;;29.20;85.20;;;;;;1881135;75;21110;-82
2021/11/21 02:53:55;;;;;;;13.60;8.80;;;29.30;85.30;;;;;;1877082;75;21078;-81
2021/11/21 02:56:27;;;;;;;11.65;8.68;;;29.40;84.30;;;;;;1867945;75;21178;-82
2021/11/21 02:58:58;;;;;;;19.25;9.15;;;29.50;83.50;;;;;;1872897;75;21131;-80
2021/11/21 03:01:29;;;;;;;16.52;9.73;;;29.60;83.70;;;;;;1878869;75;21193;-81
2021/11/21 03:04:00;;;;;;;13.40;9.63;;;29.60;83.90;;;;;;1888614;75;21769;-81
2021/11/21 03:06:32;;;;;;;18.90;10.00;;;29.70;83.80;;;;;;1875395;75;21147;-80
2021/11/21 03:09:03;;;;;;;12.28;8.23;;;29.70;83.90;;;;;;1864715;76;21201;-81
2021/11/21 03:11:35;;;;;;;14.55;9.35;;;29.80;82.50;;;;;;1878612;75;21150;-81
2021/11/21 03:14:06;;;;;;;17.17;9.88;;;29.90;83.40;;;;;;1879944;75;21106;-82
2021/11/21 03:16:37;;;;;;;15.53;9.83;;;30.00;83.10;;;;;;1885999;75;21192;-81
2021/11/21 03:19:08;;;;;;;13.48;9.00;;;30.00;82.70;;;;;;1879985;75;21260;-82
2021/11/21 03:21:39;;;;;;;14.68;10.10;;;30.10;82.20;;;;;;1867204;75;21158;-82
2021/11/21 03:24:11;;;;;;;13.03;9.43;;;30.10;82.20;;;;;;1877943;75;21237;-82
2021/11/21 03:26:43;;;;;;;12.75;8.20;;;30.20;83.40;;;;;;1873991;75;21239;-81
2021/11/21 03:29:15;;;;;;;13.50;8.30;;;30.30;81.00;;;;;;1875395;75;21134;-81
2021/11/21 03:31:46;;;;;;;15.80;8.03;;;30.40;81.50;;;;;;1877425;75;21243;-80
2021/11/21 03:34:17;;;;;;;11.48;7.78;;;30.50;81.30;;;;;;1875315;75;21135;-81
2021/11/21 03:36:48;;;;;;;13.38;8.55;;;30.50;81.80;;;;;;1876441;75;21200;-80
2021/11/21 03:39:18;;;;;;;11.48;8.73;;;30.60;80.50;;;;;;1859633;75;21122;-81
2021/11/21 03:41:50;;;;;;;11.15;8.33;;;30.70;79.90;;;;;;1869428;75;22615;-82
2021/11/21 03:44:21;;;;;;;11.03;8.70;;;30.90;80.50;;;;;;1866571;75;21286;-81
2021/11/21 03:46:52;;;;;;;12.13;7.55;;;31.00;79.00;;;;;;1869389;75;21244;-82
2021/11/21 03:49:23;;;;;;;10.78;7.30;;;31.10;77.40;;;;;;1857741;75;21073;-81
2021/11/21 03:51:54;;;;;;;25.68;8.68;;;31.20;78.00;;;;;;1863560;75;21145;-81
2021/11/21 03:54:24;;;;;;;13.30;7.65;;;31.30;76.90;;;;;;1861629;75;21139;-82
2021/11/21 03:56:55;;;;;;;12.95;7.03;;;31.40;77.40;;;;;;1858846;75;21142;-82
2021/11/21 03:59:26;;;;;;;9.08;7.50;;;31.50;75.40;;;;;;1873217;75;21225;-82
2021/11/21 04:01:59;;;;;;;9.38;6.12;;;31.50;75.50;;;;;;1857958;75;21174;-81
2021/11/21 04:04:32;;;;;;;11.43;7.35;;;31.60;74.80;;;;;;1855063;75;21147;-82
2021/11/21 04:07:04;;;;;;;13.68;7.62;;;31.70;75.60;;;;;;1866970;75;21174;-82
2021/11/21 04:09:35;;;;;;;10.95;7.15;;;31.70;75.30;;;;;;1845637;77;21136;-82
2021/11/21 04:12:06;;;;;;;11.28;7.72;;;31.70;76.50;;;;;;1866300;75;21627;-82
2021/11/21 04:14:37;;;;;;;11.68;7.12;;;31.80;76.80;;;;;;1858144;75;21112;-82
2021/11/21 04:17:08;;;;;;;26.12;8.88;;;31.90;74.90;;;;;;1864780;75;21132;-82
2021/11/21 04:19:38;;;;;;;12.73;7.90;;;32.00;73.60;;;;;;1864943;75;21696;-81
2021/11/21 04:22:09;;;;;;;10.63;7.17;;;32.10;74.80;;;;;;1886752;75;21531;-83
2021/11/21 04:24:40;;;;;;;11.28;7.08;;;32.10;73.70;;;;;;1874650;75;21197;-82
2021/11/21 04:27:11;;;;;;;11.65;7.55;;;32.30;73.90;;;;;;1857290;77;21108;-82
2021/11/21 04:29:42;;;;;;;10.18;7.00;;;32.40;72.40;;;;;;1877168;75;21173;-81
2021/11/21 04:32:13;;;;;;;11.05;7.90;;;32.50;71.60;;;;;;1868349;75;21149;-81
2021/11/21 04:34:44;;;;;;;11.73;7.12;;;32.60;71.50;;;;;;1870877;75;21047;-82
2021/11/21 04:37:15;;;;;;;9.68;7.10;;;32.60;71.20;;;;;;1862943;75;21739;-81
2021/11/21 04:39:46;;;;;;;11.30;6.30;;;32.60;72.40;;;;;;1877873;75;21107;-80
2021/11/21 04:42:17;;;;;;;11.75;6.97;;;32.60;70.00;;;;;;1861714;75;21531;-80
2021/11/21 04:44:48;;;;;;;13.43;6.67;;;32.70;71.00;;;;;;1880612;75;21200;-81
2021/11/21 04:47:19;;;;;;;10.13;7.00;;;32.70;70.90;;;;;;1851191;76;21135;-82
2021/11/21 04:49:49;;;;;;;13.18;6.70;;;32.80;70.60;;;;;;1849412;77;21586;-81
2021/11/21 04:52:20;;;;;;;11.43;7.08;;;32.80;69.20;;;;;;1845836;77;21221;-82
2021/11/21 04:54:51;;;;;;;10.85;6.70;;;32.90;70.20;;;;;;1836202;77;21116;-82
2021/11/21 04:57:22;;;;;;;13.83;6.85;;;33.00;70.40;;;;;;1838529;77;21113;-82
2021/11/21 04:59:53;;;;;;;8.88;6.55;;;33.10;69.80;;;;;;1824593;77;21206;-82
2021/11/21 05:02:24;;;;;;;11.57;7.20;;;33.20;71.20;;;;;;1841086;77;21138;-81
2021/11/21 05:04:55;;;;;;;8.48;6.53;;;33.20;68.70;;;;;;1847351;76;21166;-81
2021/11/21 05:07:25;;;;;;;10.38;7.72;;;33.30;67.90;;;;;;1857054;77;21154;-81
2021/11/21 05:09:56;;;;;;;14.60;7.30;;;33.40;68.40;;;;;;1832836;77;21171;-81
2021/11/21 05:12:27;;;;;;;9.88;6.58;;;33.40;68.30;;;;;;1828818;76;21089;-82
2021/11/21 05:14:59;;;;;;;10.25;7.22;;;33.40;67.70;;;;;;1836495;76;21117;-81
2021/11/21 05:17:30;;;;;;;11.05;7.25;;;33.40;68.00;;;;;;1822440;78;21106;-81
2021/11/21 05:20:01;;;;;;;11.30;6.42;;;33.40;67.20;;;;;;1830286;77;21138;-81
2021/11/21 05:22:31;;;;;;;9.15;6.40;;;33.30;68.40;;;;;;1821195;77;21667;-82
2021/11/21 05:25:02;;;;;;;7.97;6.40;;;33.30;66.50;;;;;;1857229;76;21532;-83
2021/11/21 05:27:33;;;;;;;9.93;6.03;;;33.40;66.00;;;;;;1835673;77;21142;-82
2021/11/21 05:30:07;;;;;;;11.53;6.28;;;33.50;65.80;;;;;;1820617;78;21091;-82
2021/11/21 05:32:37;;;;;;;10.38;6.35;;;33.50;67.60;;;;;;1823401;77;21196;-82
2021/11/21 05:35:09;;;;;;;11.48;7.17;;;33.60;67.50;;;;;;1807642;77;21194;-81
2021/11/21 05:37:40;;;;;;;8.95;6.55;;;33.70;65.80;;;;;;1784696;78;21240;-81
2021/11/21 05:40:12;;;;;;;10.35;6.35;;;33.80;65.70;;;;;;1783076;78;21177;-81
2021/11/21 05:42:44;;;;;;;8.45;6.08;;;33.80;65.60;;;;;;1792913;78;21250;-82
2021/11/21 05:45:15;;;;;;;8.00;6.53;;;33.60;64.20;;;;;;1797778;77;21623;-81
2021/11/21 05:47:46;;;;;;;10.60;6.95;;;33.60;64.60;;;;;;1793763;78;21074;-82
2021/11/21 05:50:17;;;;;;;11.03;6.15;;;33.70;66.10;;;;;;1800865;78;21171;-83
2021/11/21 05:52:50;;;;;;;8.83;6.50;;;33.70;65.10;;;;;;1796217;78;21126;-83
2021/11/21 05:55:21;;;;;;;7.95;6.10;;;33.80;64.90;;;;;;1796621;78;21304;-83
2021/11/21 05:57:53;;;;;;;7.92;5.72;;;33.80;64.30;;;;;;1797715;78;21648;-82
2021/11/21 06:00:26;;;;;;;9.50;6.25;;;33.80;63.90;;;;;;1797645;78;21233;-83
2021/11/21 06:02:59;;;;;;;8.50;6.45;;;33.90;63.90;;;;;;1795181;78;21141;-81
2021/11/21 06:05:30;;;;;;;11.83;6.50;;;33.90;63.80;;;;;;1797071;78;21917;-83
2021/11/21 06:08:06;;;;;;;10.18;6.05;;;34.00;64.00;;;;;;1799502;79;21728;-83
2021/11/21 06:10:34;;;;;;;10.53;6.60;;;34.00;63.90;;;;;;1801085;78;21477;-83
2021/11/21 06:13:08;;;;;;;8.90;5.35;;;34.00;63.10;;;;;;1791572;78;21132;-84
2021/11/21 06:15:39;;;;;;;8.03;5.92;;;34.10;62.30;;;;;;1816460;77;21140;-82
2021/11/21 06:18:10;;;;;;;8.45;5.75;;;34.00;62.40;;;;;;1832820;77;21194;-82
2021/11/21 06:20:41;;;;;;;10.25;5.70;;;33.90;61.70;;;;;;1815961;77;21268;-83
2021/11/21 06:23:12;;;;;;;8.45;5.42;;;33.70;62.20;;;;;;1808091;78;21210;-83
2021/11/21 06:25:43;;;;;;;7.55;5.92;;;33.50;63.00;;;;;;1800274;78;21237;-84
2021/11/21 06:28:16;;;;;;;9.85;7.12;;;33.20;63.50;;;;;;1787576;78;21183;-83
2021/11/21 06:30:52;;;;;;;10.95;6.50;;;33.10;64.80;;;;;;1768630;79;21179;-83
2021/11/21 06:33:23;;;;;;;7.90;5.90;;;33.00;65.40;;;;;;1826885;77;21180;-83
2021/11/21 06:36:02;;;;;;;7.42;6.03;;;32.70;65.70;;;;;;1818352;77;21225;-83
2021/11/21 06:38:31;;;;;;;10.53;5.78;;;32.70;65.80;;;;;;1797039;78;21756;-82
2021/11/21 06:41:02;;;;;;;8.68;6.58;;;32.50;65.90;;;;;;1828733;77;21166;-84
2021/11/21 06:43:32;;;;;;;13.08;6.37;;;32.40;65.70;;;;;;1831725;77;21206;-83
2021/11/21 06:46:03;;;;;;;12.70;8.08;;;32.40;66.40;;;;;;1839305;78;21689;-82
2021/11/21 06:48:36;;;;;;;9.53;7.05;;;32.40;66.50;;;;;;1838561;76;21162;-83
2021/11/21 06:51:07;;;;;;;8.18;6.30;;;32.40;66.40;;;;;;1835213;76;21657;-83
2021/11/21 06:53:38;;;;;;;9.68;7.45;;;32.30;66.60;;;;;;1838525;76;21131;-82
2021/11/21 06:56:08;;;;;;;9.15;7.15;;;32.30;67.40;;;;;;1847681;76;21735;-83
2021/11/21 06:58:39;;;;;;;8.18;6.45;;;32.30;67.50;;;;;;1836081;78;21191;-83
2021/11/21 07:01:10;;;;;;;7.50;6.10;;;32.30;68.00;;;;;;1833154;78;21174;-82
2021/11/21 07:03:44;;;;;;;10.78;6.35;;;32.30;67.90;;;;;;1838358;78;21165;-83
2021/11/21 07:06:17;;;;;;;10.60;6.37;;;32.40;67.60;;;;;;1829841;76;21143;-81
2021/11/21 07:08:48;;;;;;;13.55;6.83;;;32.50;67.50;;;;;;1829185;78;21143;-83
2021/11/21 07:11:19;;;;;;;11.10;7.12;;;32.70;67.50;;;;;;1827050;78;21454;-81
2021/11/21 07:13:50;;;;;;;6.87;5.92;;;32.70;67.40;;;;;;1831269;78;21157;-82
2021/11/21 07:16:23;;;;;;;11.18;6.25;;;32.80;67.20;;;;;;1827381;78;21155;-82
2021/11/21 07:18:54;;;;;;;8.63;6.30;;;32.70;67.20;;;;;;1829957;76;21245;-82
2021/11/21 07:21:25;;;;;;;10.48;6.17;;;32.70;66.70;;;;;;1837729;76;21153;-83
2021/11/21 07:23:56;;;;;;;8.83;6.22;;;32.70;67.40;;;;;;1838187;78;21119;-83
2021/11/21 07:26:27;;;;;;;8.95;6.28;;;32.60;66.70;;;;;;1830080;78;21572;-82
2021/11/21 07:29:02;;;;;;;9.35;6.20;;;32.60;66.50;;;;;;1838407;78;21210;-82
2021/11/21 07:31:36;;;;;;;10.08;5.97;;;32.50;66.70;;;;;;1831356;78;21240;-82
2021/11/21 07:34:07;;;;;;;8.13;5.45;;;32.40;66.80;;;;;;1833890;78;21529;-82
2021/11/21 07:36:38;;;;;;;7.25;5.80;;;32.40;67.00;;;;;;1834013;78;21162;-81
2021/11/21 07:39:11;;;;;;;9.20;5.62;;;32.30;66.00;;;;;;1840079;76;21088;-82
2021/11/21 07:41:42;;;;;;;7.25;5.20;;;32.20;66.80;;;;;;1829513;78;21161;-82
2021/11/21 07:44:13;;;;;;;7.28;5.22;;;32.10;66.20;;;;;;1837682;78;21131;-82
2021/11/21 07:46:44;;;;;;;8.73;5.40;;;32.10;66.30;;;;;;1837952;77;21560;-83
2021/11/21 07:49:15;;;;;;;10.30;5.80;;;32.10;66.40;;;;;;1843173;76;21123;-82
2021/11/21 07:51:47;;;;;;;9.93;5.80;;;32.10;66.50;;;;;;1833152;77;21645;-81
2021/11/21 07:54:18;;;;;;;11.57;7.15;;;32.10;66.50;;;;;;1825434;78;21225;-82
2021/11/21 07:56:49;;;;;;;11.97;7.72;;;32.00;66.80;;;;;;1824376;78;21665;-82
2021/11/21 07:59:20;;;;;;;12.88;8.93;;;32.00;66.90;;;;;;1815601;77;21602;-83
2021/11/21 08:01:51;;;;;;;9.75;6.05;;;32.00;67.20;;;;;;1788172;79;21179;-82
2021/11/21 08:04:22;;;;;;;7.83;5.55;;;32.00;66.70;;;;;;1821615;78;21220;-81
2021/11/21 08:06:53;;;;;;;9.58;6.12;;;31.90;66.50;;;;;;1812966;78;21555;-81
2021/11/21 08:09:27;;;;;;;8.05;6.40;;;31.90;67.50;;;;;;1757497;80;21179;-82
2021/11/21 08:11:56;;;;;;;12.93;6.65;;;31.90;68.50;;;;;;1796824;79;21155;-82
2021/11/21 08:14:28;;;;;;;9.00;6.33;;;31.90;69.30;;;;;;1835812;78;21550;-81
2021/11/21 08:16:58;;;;;;;12.50;7.60;;;31.80;69.70;;;;;;1831250;76;21204;-82
2021/11/21 08:19:29;;;;;;;13.88;9.68;;;31.80;69.80;;;;;;1833556;78;21163;-82
2021/11/21 08:22:00;;;;;;;10.88;7.37;;;31.80;70.00;;;;;;1823874;77;21287;-81
2021/11/21 08:24:31;;;;;;;12.15;7.12;;;31.70;70.10;;;;;;1829588;78;21253;-81
2021/11/21 08:27:02;;;;;;;16.80;8.78;;;31.70;70.80;;;;;;1829644;78;21128;-80
2021/11/21 08:29:33;;;;;;;16.90;10.45;;;31.70;71.10;;;;;;1787215;79;21675;-80
2021/11/21 08:32:05;;;;;;;20.37;12.78;;;31.70;69.60;;;;;;1794887;78;21250;-82
2021/11/21 08:34:36;;;;;;;23.30;15.28;;;31.70;69.30;;;;;;1791476;79;21147;-80
2021/11/21 08:37:07;;;;;;;19.35;11.22;;;31.70;68.60;;;;;;1789343;79;21270;-81
2021/11/21 08:39:39;;;;;;;12.47;8.75;;;31.80;68.90;;;;;;1796277;79;21626;-81
2021/11/21 08:42:10;;;;;;;13.55;7.20;;;31.80;68.20;;;;;;1799320;78;21120;-80
2021/11/21 08:44:41;;;;;;;9.98;5.70;;;31.80;68.80;;;;;;1786140;78;21145;-81
2021/11/21 08:47:13;;;;;;;9.55;6.30;;;31.90;68.00;;;;;;1801339;78;21174;-82
2021/11/21 08:49:50;;;;;;;11.90;6.67;;;31.90;69.20;;;;;;1794541;78;21116;-81
2021/11/21 08:52:17;;;;;;;9.90;6.00;;;31.80;69.40;;;;;;1786579;79;21125;-81
2021/11/21 08:54:47;;;;;;;10.63;6.70;;;31.80;68.60;;;;;;1791994;79;21145;-80
2021/11/21 08:57:18;;;;;;;8.00;5.53;;;31.80;69.10;;;;;;1787254;79;21110;-80
2021/11/21 08:59:49;;;;;;;11.95;6.45;;;31.80;68.30;;;;;;1795620;79;21664;-81
2021/11/21 09:02:20;;;;;;;9.65;6.65;;;31.80;67.70;;;;;;1789441;78;21122;-81
2021/11/21 09:04:51;;;;;;;9.75;6.12;;;31.90;67.80;;;;;;1785187;79;21631;-81
2021/11/21 09:07:22;;;;;;;10.95;5.90;;;31.90;67.80;;;;;;1793451;78;21062;-81
2021/11/21 09:09:52;;;;;;;8.68;5.85;;;31.80;67.80;;;;;;1792791;79;21209;-81
2021/11/21 09:12:23;;;;;;;13.50;7.45;;;31.90;67.60;;;;;;1789696;78;21071;-81
2021/11/21 09:14:54;;;;;;;8.85;6.55;;;31.90;68.20;;;;;;1802723;78;21178;-81
2021/11/21 09:17:25;;;;;;;10.60;6.95;;;31.90;68.00;;;;;;1790144;79;21237;-81
2021/11/21 09:19:56;;;;;;;8.70;6.92;;;31.80;68.00;;;;;;1825605;78;21124;-81
2021/11/21 09:22:27;;;;;;;9.08;6.08;;;31.80;68.20;;;;;;1818660;77;21730;-80
2021/11/21 09:24:58;;;;;;;10.08;5.42;;;31.80;67.70;;;;;;1814225;78;21524;-80
2021/11/21 09:27:29;;;;;;;7.50;5.95;;;31.80;67.60;;;;;;1831992;76;21713;-81
2021/11/21 09:30:00;;;;;;;8.73;6.67;;;31.80;67.80;;;;;;1834183;77;21178;-80
2021/11/21 09:32:30;;;;;;;9.13;6.47;;;31.80;67.90;;;;;;1828894;76;21123;-81
2021/11/21 09:35:02;;;;;;;10.68;8.00;;;31.80;67.70;;;;;;1829677;77;21259;-81
2021/11/21 09:37:32;;;;;;;10.85;7.70;;;31.80;67.60;;;;;;1826442;77;21155;-81
2021/11/21 09:40:04;;;;;;;13.15;8.75;;;31.80;67.90;;;;;;1823899;77;21136;-81
2021/11/21 09:42:36;;;;;;;10.50;8.00;;;31.80;67.60;;;;;;1824141;77;21555;-82
2021/11/21 09:45:09;;;;;;;10.72;6.72;;;31.80;67.80;;;;;;1827815;77;21566;-81
2021/11/21 09:47:40;;;;;;;7.35;5.65;;;31.70;67.90;;;;;;1796720;77;21586;-81
2021/11/21 09:50:13;;;;;;;11.57;5.42;;;31.70;67.50;;;;;;1794221;78;21160;-81
2021/11/21 09:52:44;;;;;;;9.58;5.67;;;31.70;67.60;;;;;;1795454;78;21186;-81
2021/11/21 09:55:15;;;;;;;8.75;5.17;;;31.70;67.60;;;;;;1785160;79;21620;-79
2021/11/21 09:57:47;;;;;;;6.42;5.05;;;31.70;67.80;;;;;;1785643;79;21185;-80
2021/11/21 10:00:20;;;;;;;7.60;6.08;;;31.60;67.50;;;;;;1787967;79;21166;-82
2021/11/21 10:02:53;;;;;;;14.13;8.23;;;31.60;67.80;;;;;;1791374;79;21537;-80
2021/11/21 10:05:27;;;;;;;8.03;6.03;;;31.60;68.20;;;;;;1784483;79;21244;-80
2021/11/21 10:08:01;;;;;;;8.05;5.70;;;31.50;68.10;;;;;;1796216;78;21177;-81
2021/11/21 10:10:34;;;;;;;10.65;5.92;;;31.50;68.50;;;;;;1782942;79;21111;-82
2021/11/21 10:13:05;;;;;;;8.90;5.85;;;31.50;68.80;;;;;;1779218;78;21228;-82
2021/11/21 10:15:36;;;;;;;14.90;9.83;;;31.50;69.10;;;;;;1800841;78;21222;-82
2021/11/21 10:18:06;;;;;;;7.42;6.35;;;31.50;69.30;;;;;;1794412;78;21166;-80
2021/11/21 10:20:39;;;;;;;12.70;8.50;;;31.50;69.50;;;;;;1799846;78;21258;-83
2021/11/21 10:23:11;;;;;;;9.08;6.03;;;31.50;69.70;;;;;;1782799;80;21181;-82
2021/11/21 10:25:44;;;;;;;10.75;6.70;;;31.40;69.70;;;;;;1788539;78;21159;-81
2021/11/21 10:28:19;;;;;;;10.43;6.05;;;31.30;70.00;;;;;;1773073;78;21148;-80
2021/11/21 10:30:52;;;;;;;9.83;5.75;;;31.30;70.40;;;;;;1766611;79;21535;-80
2021/11/21 10:33:28;;;;;;;9.70;5.62;;;31.30;70.60;;;;;;1780220;79;21205;-81
2021/11/21 10:36:00;;;;;;;12.03;5.92;;;31.20;70.80;;;;;;1765929;78;21157;-79
2021/11/21 10:38:33;;;;;;;10.00;5.72;;;31.20;71.10;;;;;;1752633;81;21224;-80
2021/11/21 10:41:06;;;;;;;11.43;6.22;;;31.20;71.30;;;;;;1799525;79;21123;-80
2021/11/21 10:43:39;;;;;;;8.00;6.00;;;31.10;71.50;;;;;;1784076;79;21140;-82
2021/11/21 10:46:12;;;;;;;8.65;6.30;;;31.10;71.90;;;;;;1789743;78;21096;-81
2021/11/21 10:48:44;;;;;;;10.93;6.70;;;31.10;71.90;;;;;;1821540;77;21201;-81
2021/11/21 10:51:17;;;;;;;14.28;7.40;;;31.00;72.10;;;;;;1801554;78;21650;-82
2021/11/21 10:53:48;;;;;;;16.25;7.70;;;31.00;72.20;;;;;;1819897;78;21200;-81
2021/11/21 10:56:19;;;;;;;16.07;8.98;;;30.90;72.30;;;;;;1814715;78;21106;-81
2021/11/21 10:58:51;;;;;;;62.27;34.43;;;31.00;72.60;;;;;;1797869;78;21141;-79
2021/11/21 11:01:26;;;;;;;29.35;16.00;;;30.90;72.70;;;;;;1791599;79;21146;-81
2021/11/21 11:03:59;;;;;;;22.37;12.13;;;30.90;73.20;;;;;;1792490;79;21153;-81
2021/11/21 11:06:31;;;;;;;18.50;10.72;;;30.90;73.40;;;;;;1791100;78;21157;-81
2021/11/21 11:09:04;;;;;;;15.15;10.18;;;30.90;73.60;;;;;;1801623;78;21155;-80
2021/11/21 11:11:36;;;;;;;21.68;11.22;;;30.80;73.60;;;;;;1810509;78;21236;-81
2021/11/21 11:14:07;;;;;;;19.73;12.25;;;30.80;73.90;;;;;;1789474;78;21221;-81
2021/11/21 11:16:38;;;;;;;19.00;9.88;;;30.80;74.10;;;;;;1797747;78;21065;-81
2021/11/21 11:19:09;;;;;;;18.27;10.98;;;30.70;73.90;;;;;;1843098;77;21195;-80
2021/11/21 11:21:40;;;;;;;17.95;11.50;;;30.70;74.20;;;;;;1804341;78;21076;-81
2021/11/21 11:24:11;;;;;;;20.02;12.43;;;30.70;74.40;;;;;;1783790;80;21190;-81
2021/11/21 11:26:42;;;;;;;20.10;13.10;;;30.70;75.60;;;;;;1786665;78;21670;-81
2021/11/21 11:29:15;;;;;;;19.17;11.75;;;30.70;75.40;;;;;;1822110;78;21136;-80
2021/11/21 11:31:47;;;;;;;18.80;11.53;;;30.60;74.70;;;;;;1829230;77;21064;-80
2021/11/21 11:34:21;;;;;;;15.70;10.55;;;30.60;74.90;;;;;;1821859;78;21175;-81
2021/11/21 11:36:54;;;;;;;20.25;10.93;;;30.60;75.00;;;;;;1820793;77;21128;-81
2021/11/21 11:39:25;;;;;;;14.87;11.30;;;30.60;75.10;;;;;;1828896;77;21132;-81
2021/11/21 11:41:57;;;;;;;17.00;11.33;;;30.60;75.20;;;;;;1821401;78;21574;-81
2021/11/21 11:44:30;;;;;;;20.60;11.97;;;30.50;74.80;;;;;;1820058;78;21167;-81
2021/11/21 11:47:04;;;;;;;21.10;12.73;;;30.50;75.40;;;;;;1811039;77;21223;-81
2021/11/21 11:49:37;;;;;;;19.73;12.33;;;30.50;75.60;;;;;;1807116;77;21278;-81
2021/11/21 11:52:09;;;;;;;19.42;11.88;;;30.50;75.90;;;;;;1813891;77;21187;-80
2021/11/21 11:54:47;;;;;;;21.17;13.05;;;30.50;75.80;;;;;;1812363;77;21794;-81
2021/11/21 11:57:20;;;;;;;17.37;12.37;;;30.40;75.80;;;;;;1812204;77;21221;-81
2021/11/21 11:59:51;;;;;;;20.15;12.15;;;30.40;76.00;;;;;;1817165;78;21135;-81
2021/11/21 12:02:25;;;;;;;17.75;12.00;;;30.50;76.20;;;;;;1808213;77;21235;-81
2021/11/21 12:04:59;;;;;;;16.32;11.10;;;30.40;76.50;;;;;;1806188;77;21147;-81
2021/11/21 12:07:32;;;;;;;21.82;13.03;;;30.40;76.50;;;;;;1816156;78;21158;-81
2021/11/21 12:10:02;;;;;;;24.67;12.85;;;30.40;76.50;;;;;;1810795;78;21167;-80
2021/11/21 12:12:35;;;;;;;16.40;11.45;;;30.40;76.70;;;;;;1822145;78;21167;-81
2021/11/21 12:15:09;;;;;;;24.02;13.35;;;30.40;76.80;;;;;;1826531;78;21579;-81
2021/11/21 12:17:42;;;;;;;18.15;12.78;;;30.30;77.00;;;;;;1783651;77;21588;-79
2021/11/21 12:20:14;;;;;;;17.40;11.83;;;30.40;77.10;;;;;;1798072;79;21174;-80
2021/11/21 12:22:45;;;;;;;18.65;12.60;;;30.30;77.10;;;;;;1806899;76;21156;-81
2021/11/21 12:25:18;;;;;;;19.40;12.73;;;30.30;77.10;;;;;;1816945;78;21221;-81
2021/11/21 12:27:51;;;;;;;17.23;12.68;;;30.30;77.30;;;;;;1828828;77;21587;-81
2021/11/21 12:30:24;;;;;;;19.90;13.58;;;30.30;77.50;;;;;;1827524;77;21393;-81
2021/11/21 12:32:58;;;;;;;20.08;13.83;;;30.30;77.70;;;;;;1834049;77;21158;-81
2021/11/21 12:35:30;;;;;;;20.57;13.88;;;30.20;77.80;;;;;;1823687;78;21119;-81
2021/11/21 12:38:03;;;;;;;19.80;14.50;;;30.20;77.90;;;;;;1819738;77;21138;-81
2021/11/21 12:40:36;;;;;;;22.20;14.45;;;30.20;78.10;;;;;;1808091;78;21811;-80
2021/11/21 12:43:10;;;;;;;21.35;14.73;;;30.20;78.30;;;;;;1810523;78;21136;-80
2021/11/21 12:45:44;;;;;;;24.70;15.13;;;30.20;78.40;;;;;;1807482;78;21630;-81
2021/11/21 12:48:17;;;;;;;22.07;14.25;;;30.10;78.50;;;;;;1816969;77;21714;-80
2021/11/21 12:50:50;;;;;;;24.37;15.18;;;30.20;78.70;;;;;;1791027;79;21182;-81
2021/11/21 12:53:22;;;;;;;24.52;15.00;;;30.10;78.90;;;;;;1785373;78;21135;-80
2021/11/21 12:55:55;;;;;;;20.40;14.45;;;30.10;78.90;;;;;;1772918;78;21197;-81
2021/11/21 12:58:28;;;;;;;20.85;14.15;;;30.10;79.00;;;;;;1823397;77;21238;-81